createdAt,value
2022-08-22T00:02:46.450Z,99.10
2022-08-22T00:03:02.738Z,97.60
2022-08-22T00:03:12.733Z,95.80
2022-08-22T00:03:15.072Z,99.90
2022-08-22T00:07:16.055Z,99.90
2022-08-22T00:11:25.696Z,99.90
2022-08-22T00:15:43.134Z,99.90
2022-08-22T00:20:09.432Z,99.90
2022-08-22T00:24:34.022Z,99.90
2022-08-22T00:28:48.145Z,99.90
2022-08-22T00:32:52.651Z,99.90
2022-08-22T00:37:07.449Z,99.90
2022-08-22T00:41:31.235Z,99.90
2022-08-22T00:46:06.950Z,99.90
2022-08-22T00:50:41.969Z,99.90
2022-08-22T00:55:01.883Z,99.90
2022-08-22T00:59:40.953Z,99.90
2022-08-22T01:03:52.372Z,99.90
2022-08-22T01:08:14.108Z,99.90
2022-08-22T01:12:40.764Z,99.90
2022-08-22T01:17:33.929Z,99.90
2022-08-22T01:21:47.709Z,99.90
2022-08-22T01:26:20.191Z,99.90
2022-08-22T01:30:52.929Z,99.90
2022-08-22T01:35:09.721Z,99.90
2022-08-22T01:39:28.504Z,99.90
2022-08-22T01:43:38.742Z,99.90
2022-08-22T01:48:17.657Z,99.90
2022-08-22T01:52:36.411Z,99.90
2022-08-22T01:56:45.701Z,99.90
2022-08-22T02:01:06.645Z,99.90
2022-08-22T02:05:18.511Z,99.90
2022-08-22T02:09:38.316Z,99.90
2022-08-22T02:13:49.138Z,99.90
2022-08-22T02:18:12.153Z,99.90
2022-08-22T02:22:20.110Z,99.90
2022-08-22T02:26:27.529Z,99.90
2022-08-22T02:31:06.771Z,99.90
2022-08-22T02:35:11.531Z,99.90
2022-08-22T02:39:38.179Z,99.90
2022-08-22T02:43:50.566Z,99.90
2022-08-22T02:48:06.757Z,99.90
2022-08-22T02:52:26.415Z,99.90
2022-08-22T02:56:43.078Z,99.90
2022-08-22T03:01:14.844Z,99.90
2022-08-22T03:05:19.018Z,99.90
2022-08-22T03:09:26.632Z,99.90
2022-08-22T03:13:53.743Z,99.90
2022-08-22T03:18:13.936Z,99.90
2022-08-22T03:22:17.722Z,99.90
2022-08-22T03:26:28.385Z,99.90
2022-08-22T03:30:37.588Z,99.90
2022-08-22T03:35:01.961Z,99.90
2022-08-22T03:39:16.686Z,99.90
2022-08-22T03:43:34.885Z,99.90
2022-08-22T03:48:13.186Z,99.90
2022-08-22T03:53:05.779Z,99.90
2022-08-22T03:57:35.545Z,99.90
2022-08-22T04:01:39.972Z,99.90
2022-08-22T04:06:12.914Z,99.90
2022-08-22T04:10:36.553Z,99.90
2022-08-22T04:15:00.571Z,99.90
2022-08-22T04:19:15.292Z,99.90
2022-08-22T04:23:44.816Z,99.90
2022-08-22T04:28:11.948Z,99.90
2022-08-22T04:32:41.543Z,99.90
2022-08-22T04:36:48.721Z,99.90
2022-08-22T04:41:05.512Z,99.90
2022-08-22T04:45:18.012Z,99.90
2022-08-22T04:49:37.249Z,99.90
2022-08-22T04:53:41.680Z,99.90
2022-08-22T04:58:01.745Z,99.90
2022-08-22T05:02:11.302Z,99.90
2022-08-22T05:06:16.570Z,99.90
2022-08-22T05:10:27.145Z,99.90
2022-08-22T05:14:39.905Z,99.90
2022-08-22T05:19:13.128Z,99.90
2022-08-22T05:23:30.836Z,99.90
2022-08-22T05:27:37.082Z,99.90
2022-08-22T05:31:44.750Z,99.90
2022-08-22T05:35:55.801Z,99.90
2022-08-22T05:40:01.189Z,99.90
2022-08-22T05:44:03.829Z,99.90
2022-08-22T05:48:18.023Z,99.90
2022-08-22T05:52:28.633Z,99.90
2022-08-22T05:56:33.761Z,99.90
2022-08-22T06:00:40.827Z,99.90
2022-08-22T06:04:53.873Z,99.90
2022-08-22T06:08:59.155Z,99.90
2022-08-22T06:13:03.020Z,99.90
2022-08-22T06:17:11.536Z,99.90
2022-08-22T06:21:27.012Z,99.90
2022-08-22T06:25:33.191Z,99.90
2022-08-22T06:30:04.890Z,99.90
2022-08-22T06:34:14.718Z,99.90
2022-08-22T06:38:18.069Z,99.90
2022-08-22T06:42:25.167Z,99.90
2022-08-22T06:46:32.330Z,99.90
2022-08-22T06:50:37.978Z,99.90
2022-08-22T06:54:45.449Z,99.90
2022-08-22T06:58:51.442Z,99.90
2022-08-22T07:03:05.581Z,99.90
2022-08-22T07:07:07.383Z,99.90
2022-08-22T07:11:17.537Z,99.90
2022-08-22T07:15:37.164Z,99.90
2022-08-22T07:19:45.478Z,99.90
2022-08-22T07:23:48.160Z,99.90
2022-08-22T07:28:34.718Z,99.90
2022-08-22T07:33:26.077Z,99.90
2022-08-22T07:37:52.481Z,99.90
2022-08-22T07:42:17.248Z,99.90
2022-08-22T07:46:41.221Z,99.90
2022-08-22T07:51:07.872Z,99.90
2022-08-22T07:55:30.121Z,99.90
2022-08-22T07:59:35.290Z,99.90
2022-08-22T08:03:38.474Z,99.90
2022-08-22T08:07:45.376Z,99.90
2022-08-22T08:11:49.819Z,99.90
2022-08-22T08:15:51.977Z,99.90
2022-08-22T08:19:55.075Z,99.90
2022-08-22T08:24:01.087Z,99.90
2022-08-22T08:28:23.421Z,99.90
2022-08-22T08:32:30.384Z,99.90
2022-08-22T08:36:36.376Z,99.90
2022-08-22T08:41:06.518Z,99.90
2022-08-22T08:45:40.278Z,99.90
2022-08-22T08:49:56.574Z,99.90
2022-08-22T08:54:35.817Z,99.90
2022-08-22T08:59:00.404Z,99.30
2022-08-22T09:03:31.076Z,99.40
2022-08-22T09:07:56.766Z,98.80
2022-08-22T09:12:21.314Z,98.90
2022-08-22T09:17:11.526Z,97.50
2022-08-22T09:21:41.169Z,97.70
2022-08-22T09:26:02.248Z,96.30
2022-08-22T09:30:11.925Z,95.90
2022-08-22T09:38:59.737Z,95.10
2022-08-22T09:43:27.533Z,94.30
2022-08-22T09:47:44.553Z,94.20
2022-08-22T09:52:14.425Z,93.80
2022-08-22T09:56:41.010Z,93.00
2022-08-22T10:00:57.870Z,92.90
2022-08-22T10:05:04.175Z,93.20
2022-08-22T10:09:17.398Z,92.70
2022-08-22T10:13:38.423Z,91.30
2022-08-22T10:18:10.478Z,92.00
2022-08-22T10:22:33.614Z,90.30
2022-08-22T10:26:44.813Z,90.90
2022-08-22T10:31:02.064Z,90.50
2022-08-22T10:35:19.579Z,90.70
2022-08-22T10:39:25.613Z,90.70
2022-08-22T10:44:00.998Z,91.30
2022-08-22T10:48:07.246Z,90.80
2022-08-22T10:52:18.636Z,90.90
2022-08-22T10:56:50.862Z,91.10
2022-08-22T11:01:00.002Z,91.60
2022-08-22T11:05:19.979Z,91.30
2022-08-22T11:09:24.530Z,90.80
2022-08-22T11:13:46.377Z,90.70
2022-08-22T11:18:30.428Z,90.30
2022-08-22T11:22:35.326Z,90.80
2022-08-22T11:26:58.811Z,89.70
2022-08-22T11:31:25.619Z,89.10
2022-08-22T11:35:56.091Z,87.30
2022-08-22T11:40:27.637Z,86.20
2022-08-22T11:44:50.657Z,86.10
2022-08-22T11:49:01.872Z,85.90
2022-08-22T11:53:45.143Z,84.30
2022-08-22T11:58:06.773Z,87.10
2022-08-22T12:02:41.101Z,86.60
2022-08-22T12:06:50.052Z,82.10
2022-08-22T12:11:11.569Z,81.30
2022-08-22T12:15:16.183Z,83.20
2022-08-22T12:19:22.968Z,81.70
2022-08-22T12:23:48.942Z,80.50
2022-08-22T12:28:11.550Z,82.70
2022-08-22T12:32:34.537Z,82.80
2022-08-22T12:37:08.369Z,82.50
2022-08-22T12:41:35.514Z,82.60
2022-08-22T12:45:46.314Z,81.90
2022-08-22T12:50:40.080Z,83.30
2022-08-22T12:55:08.027Z,83.40
2022-08-22T12:59:27.567Z,82.50
2022-08-22T13:03:33.720Z,82.10
2022-08-22T13:07:39.296Z,82.00
2022-08-22T13:11:52.392Z,78.10
2022-08-22T13:16:02.677Z,79.00
2022-08-22T13:20:20.669Z,78.10
2022-08-22T13:24:51.841Z,77.80
2022-08-22T13:29:23.951Z,78.70
2022-08-22T13:33:28.860Z,78.40
2022-08-22T13:37:38.118Z,76.70
2022-08-22T13:41:53.883Z,74.90
2022-08-22T13:46:11.023Z,75.60
2022-08-22T13:50:19.143Z,75.20
2022-08-22T13:54:50.294Z,76.20
2022-08-22T13:58:58.661Z,76.00
2022-08-22T14:03:20.511Z,75.50
2022-08-22T14:07:37.144Z,73.00
2022-08-22T14:11:52.376Z,74.20
2022-08-22T14:16:06.799Z,73.50
2022-08-22T14:20:32.092Z,73.40
2022-08-22T14:24:45.623Z,75.10
2022-08-22T14:28:48.364Z,74.30
2022-08-22T14:33:03.063Z,75.40
2022-08-22T14:37:22.208Z,74.00
2022-08-22T14:41:56.044Z,74.60
2022-08-22T14:46:03.844Z,76.40
2022-08-22T14:50:11.355Z,75.30
2022-08-22T14:54:21.428Z,74.80
2022-08-22T14:58:26.364Z,74.40
2022-08-22T15:02:32.962Z,72.60
2022-08-22T15:06:57.827Z,74.10
2022-08-22T15:11:32.090Z,71.80
2022-08-22T15:15:41.184Z,70.40
2022-08-22T15:20:10.880Z,72.20
2022-08-22T15:24:14.638Z,71.20
2022-08-22T15:28:20.751Z,73.80
2022-08-22T15:32:26.788Z,70.70
2022-08-22T15:36:28.701Z,71.50
2022-08-22T15:40:40.477Z,73.00
2022-08-22T15:44:47.418Z,70.50
2022-08-22T15:48:56.999Z,71.70
2022-08-22T15:53:06.813Z,70.20
2022-08-22T15:57:31.777Z,69.60
2022-08-22T16:01:42.822Z,69.80
2022-08-22T16:05:56.177Z,69.00
2022-08-22T16:09:59.303Z,69.50
2022-08-22T16:14:34.569Z,68.40
2022-08-22T16:18:39.720Z,69.70
2022-08-22T16:22:56.738Z,69.40
2022-08-22T16:26:58.736Z,68.90
2022-08-22T16:31:22.465Z,68.50
2022-08-22T16:36:06.085Z,67.70
2022-08-22T16:40:20.563Z,68.40
2022-08-22T16:44:28.307Z,69.00
2022-08-22T16:48:36.609Z,67.50
2022-08-22T16:52:50.309Z,68.50
2022-08-22T16:57:30.318Z,68.00
2022-08-22T17:01:42.571Z,67.90
2022-08-22T17:06:06.072Z,68.20
2022-08-22T17:10:35.667Z,68.20
2022-08-22T17:15:13.938Z,69.20
2022-08-22T17:19:37.309Z,71.20
2022-08-22T17:23:57.136Z,71.20
2022-08-22T17:28:10.879Z,71.70
2022-08-22T17:32:34.797Z,71.80
2022-08-22T17:37:03.859Z,72.00
2022-08-22T17:41:21.942Z,72.30
2022-08-22T17:46:05.382Z,73.20
2022-08-22T17:50:15.530Z,73.00
2022-08-22T17:54:20.317Z,73.70
2022-08-22T17:58:37.496Z,75.40
2022-08-22T18:03:01.164Z,75.30
2022-08-22T18:07:15.391Z,75.30
2022-08-22T18:11:40.320Z,74.30
2022-08-22T18:16:03.767Z,76.80
2022-08-22T18:20:18.644Z,78.50
2022-08-22T18:24:53.786Z,79.90
2022-08-22T18:29:23.048Z,81.40
2022-08-22T18:33:51.871Z,85.40
2022-08-22T18:38:03.518Z,82.60
2022-08-22T18:42:31.140Z,84.40
2022-08-22T18:46:42.818Z,84.60
2022-08-22T18:50:44.872Z,82.20
2022-08-22T18:54:59.439Z,81.90
2022-08-22T18:59:07.805Z,81.50
2022-08-22T19:03:18.417Z,82.90
2022-08-22T19:07:55.348Z,84.90
2022-08-22T19:12:35.531Z,86.00
2022-08-22T19:17:03.715Z,87.50
2022-08-22T19:21:49.892Z,90.00
2022-08-22T19:26:28.739Z,85.80
2022-08-22T19:30:52.273Z,89.40
2022-08-22T19:35:35.362Z,88.80
2022-08-22T19:39:39.831Z,90.30
2022-08-22T19:43:44.190Z,91.20
2022-08-22T19:48:07.743Z,91.60
2022-08-22T19:52:23.893Z,91.40
2022-08-22T19:56:33.519Z,92.30
2022-08-22T20:00:59.380Z,91.40
2022-08-22T20:05:21.370Z,91.70
2022-08-22T20:09:57.980Z,92.10
2022-08-22T20:14:29.996Z,92.60
2022-08-22T20:19:00.503Z,92.60
2022-08-22T20:23:22.791Z,92.60
2022-08-22T20:27:27.242Z,92.30
2022-08-22T20:31:36.398Z,92.50
2022-08-22T20:35:42.861Z,92.40
2022-08-22T20:40:08.483Z,92.10
2022-08-22T20:44:43.422Z,92.50
2022-08-22T20:48:47.080Z,92.10
2022-08-22T20:52:51.956Z,92.50
2022-08-22T20:57:03.241Z,92.70
2022-08-22T21:01:06.576Z,93.50
2022-08-22T21:05:22.319Z,94.40
2022-08-22T21:09:42.584Z,94.40
2022-08-22T21:13:44.762Z,93.70
2022-08-22T21:17:46.574Z,94.30
2022-08-22T21:21:48.365Z,93.50
2022-08-22T21:26:08.429Z,93.80
2022-08-22T21:30:11.714Z,94.70
2022-08-22T21:34:20.833Z,94.90
2022-08-22T21:38:23.204Z,95.50
2022-08-22T21:42:26.459Z,95.90
2022-08-22T21:46:28.869Z,95.20
2022-08-22T21:50:38.025Z,95.40
2022-08-22T21:54:40.168Z,95.00
2022-08-22T21:58:42.864Z,94.90
2022-08-22T22:02:44.638Z,94.80
2022-08-22T22:06:46.370Z,95.20
2022-08-22T22:10:49.116Z,95.90
2022-08-22T22:14:51.042Z,95.80
2022-08-22T22:18:52.898Z,96.10
2022-08-22T22:22:55.294Z,96.90
2022-08-22T22:26:57.612Z,96.90
2022-08-22T22:31:00.044Z,96.60
2022-08-22T22:35:02.025Z,96.40
2022-08-22T22:39:08.232Z,96.70
2022-08-22T22:43:10.666Z,97.20
2022-08-22T22:47:12.382Z,97.30
2022-08-22T22:51:14.982Z,96.90
2022-08-22T22:55:24.658Z,96.40
2022-08-22T22:59:26.801Z,96.10
2022-08-22T23:03:28.561Z,96.30
2022-08-22T23:07:30.410Z,97.20
2022-08-22T23:11:35.802Z,97.80
2022-08-22T23:15:37.770Z,97.30
2022-08-22T23:19:39.554Z,96.90
2022-08-22T23:23:41.924Z,97.20
2022-08-22T23:27:43.774Z,96.80
2022-08-22T23:31:52.533Z,96.40
2022-08-22T23:35:59.381Z,96.10
2022-08-22T23:40:02.545Z,96.70
2022-08-22T23:54:48.413Z,96.80
2022-08-22T23:58:58.140Z,98.80
